sensor_id;sensor_type;location;lat;lon;timestamp;P1;durP1;ratioP1;P2;durP2;ratioP2
45314;SDS011;31051;51.540;5.852;2023-07-29T06:37:57;3.9;;;2.9;;
45314;SDS011;31051;51.540;5.852;2023-07-29T07:03:54;3.1;;;2.4;;
45314;SDS011;31051;51.540;5.852;2023-07-29T07:16:44;2.9;;;2.4;;
45314;SDS011;31051;51.540;5.852;2023-07-29T07:29:42;2.8;;;2.4;;
45314;SDS011;31051;51.540;5.852;2023-07-29T07:42:30;2.5;;;1.8;;
45314;SDS011;31051;51.540;5.852;2023-07-29T07:55:20;2.2;;;1.7;;
45314;SDS011;31051;51.540;5.852;2023-07-29T08:08:19;2.2;;;1.7;;
45314;SDS011;31051;51.540;5.852;2023-07-29T08:21:19;3.2;;;1.8;;
45314;SDS011;31051;51.540;5.852;2023-07-29T08:34:18;3.7;;;1.6;;
45314;SDS011;31051;51.540;5.852;2023-07-29T08:47:18;1.7;;;1.5;;
45314;SDS011;31051;51.540;5.852;2023-07-29T09:00:16;2.6;;;1.5;;
45314;SDS011;31051;51.540;5.852;2023-07-29T09:13:05;1.6;;;1.3;;
45314;SDS011;31051;51.540;5.852;2023-07-29T09:26:05;2.6;;;1.5;;
45314;SDS011;31051;51.540;5.852;2023-07-29T09:39:03;1.8;;;1.3;;
45314;SDS011;31051;51.540;5.852;2023-07-29T09:51:51;1.6;;;1.2;;
45314;SDS011;31051;51.540;5.852;2023-07-29T10:04:40;1.7;;;1.2;;
45314;SDS011;31051;51.540;5.852;2023-07-29T10:17:28;1.6;;;1.2;;
45314;SDS011;31051;51.540;5.852;2023-07-29T10:30:28;1.9;;;1.4;;
45314;SDS011;31051;51.540;5.852;2023-07-29T10:43:26;1.6;;;1.3;;
45314;SDS011;31051;51.540;5.852;2023-07-29T10:56:16;1.8;;;1.4;;
45314;SDS011;31051;51.540;5.852;2023-07-29T11:09:14;1.6;;;1.4;;
45314;SDS011;31051;51.540;5.852;2023-07-29T11:22:03;1.7;;;1.3;;
45314;SDS011;31051;51.540;5.852;2023-07-29T11:35:02;1.5;;;1.4;;
45314;SDS011;31051;51.540;5.852;2023-07-29T11:47:50;2.2;;;1.4;;
45314;SDS011;31051;51.540;5.852;2023-07-29T12:00:39;1.7;;;1.4;;
45314;SDS011;31051;51.540;5.852;2023-07-29T12:13:27;3.2;;;1.6;;
45314;SDS011;31051;51.540;5.852;2023-07-29T12:26:15;2.4;;;1.8;;
45314;SDS011;31051;51.540;5.852;2023-07-29T12:39:04;6.7;;;2.0;;
45314;SDS011;31051;51.540;5.852;2023-07-29T12:51:53;3.1;;;2.2;;
45314;SDS011;31051;51.540;5.852;2023-07-29T13:04:51;2.6;;;1.6;;
45314;SDS011;31051;51.540;5.852;2023-07-29T13:17:40;2.1;;;1.4;;
45314;SDS011;31051;51.540;5.852;2023-07-29T13:30:28;1.9;;;1.4;;
45314;SDS011;31051;51.540;5.852;2023-07-29T13:43:16;3.5;;;2.1;;
45314;SDS011;31051;51.540;5.852;2023-07-29T13:56:06;2.9;;;2.2;;
45314;SDS011;31051;51.540;5.852;2023-07-29T14:09:04;2.4;;;1.9;;
45314;SDS011;31051;51.540;5.852;2023-07-29T14:21:52;2.3;;;1.7;;
45314;SDS011;31051;51.540;5.852;2023-07-29T14:34:41;1.9;;;1.4;;
45314;SDS011;31051;51.540;5.852;2023-07-29T14:47:30;2.0;;;1.4;;
45314;SDS011;31051;51.540;5.852;2023-07-29T15:00:29;2.2;;;1.6;;
45314;SDS011;31051;51.540;5.852;2023-07-29T15:13:18;2.0;;;1.6;;
45314;SDS011;31051;51.540;5.852;2023-07-29T15:26:16;1.8;;;1.4;;
45314;SDS011;31051;51.540;5.852;2023-07-29T15:39:05;2.4;;;1.8;;
45314;SDS011;31051;51.540;5.852;2023-07-29T15:51:53;2.1;;;1.4;;
45314;SDS011;31051;51.540;5.852;2023-07-29T16:04:42;1.8;;;1.4;;
45314;SDS011;31051;51.540;5.852;2023-07-29T16:17:31;1.8;;;1.6;;
45314;SDS011;31051;51.540;5.852;2023-07-29T16:30:29;1.8;;;1.6;;
45314;SDS011;31051;51.540;5.852;2023-07-29T16:43:18;1.9;;;1.6;;
45314;SDS011;31051;51.540;5.852;2023-07-29T16:56:06;2.4;;;1.7;;
45314;SDS011;31051;51.540;5.852;2023-07-29T17:08:55;2.1;;;1.8;;
45314;SDS011;31051;51.540;5.852;2023-07-29T17:21:55;1.7;;;1.5;;
45314;SDS011;31051;51.540;5.852;2023-07-29T17:34:53;2.2;;;2.0;;
45314;SDS011;31051;51.540;5.852;2023-07-29T17:47:43;2.4;;;1.9;;
45314;SDS011;31051;51.540;5.852;2023-07-29T18:00:41;2.2;;;2.0;;
45314;SDS011;31051;51.540;5.852;2023-07-29T18:13:30;2.8;;;2.2;;
45314;SDS011;31051;51.540;5.852;2023-07-29T18:26:29;2.9;;;2.7;;
45314;SDS011;31051;51.540;5.852;2023-07-29T18:39:17;2.6;;;2.2;;
45314;SDS011;31051;51.540;5.852;2023-07-29T18:52:06;2.1;;;1.7;;
45314;SDS011;31051;51.540;5.852;2023-07-29T19:04:55;2.7;;;1.7;;
45314;SDS011;31051;51.540;5.852;2023-07-29T19:17:53;2.0;;;1.6;;
45314;SDS011;31051;51.540;5.852;2023-07-29T19:30:42;2.3;;;1.8;;
45314;SDS011;31051;51.540;5.852;2023-07-29T19:43:30;2.4;;;2.0;;
45314;SDS011;31051;51.540;5.852;2023-07-29T19:56:19;2.6;;;2.2;;
45314;SDS011;31051;51.540;5.852;2023-07-29T20:09:19;2.2;;;2.0;;
45314;SDS011;31051;51.540;5.852;2023-07-29T20:22:18;3.4;;;2.3;;
45314;SDS011;31051;51.540;5.852;2023-07-29T20:35:18;3.3;;;2.3;;
45314;SDS011;31051;51.540;5.852;2023-07-29T20:48:17;4.0;;;2.2;;
45314;SDS011;31051;51.540;5.852;2023-07-29T21:01:16;3.8;;;2.3;;
45314;SDS011;31051;51.540;5.852;2023-07-29T21:14:16;5.1;;;2.4;;
45314;SDS011;31051;51.540;5.852;2023-07-29T21:27:15;5.6;;;2.3;;
45314;SDS011;31051;51.540;5.852;2023-07-29T21:40:13;5.8;;;2.5;;
45314;SDS011;31051;51.540;5.852;2023-07-29T21:53:03;5.6;;;2.4;;
45314;SDS011;31051;51.540;5.852;2023-07-29T22:06:02;4.9;;;2.4;;
45314;SDS011;31051;51.540;5.852;2023-07-29T22:19:01;5.1;;;2.4;;
45314;SDS011;31051;51.540;5.852;2023-07-29T22:32:01;5.4;;;2.6;;
45314;SDS011;31051;51.540;5.852;2023-07-29T22:45:00;6.2;;;2.7;;
45314;SDS011;31051;51.540;5.852;2023-07-29T22:57:59;7.0;;;2.7;;
45314;SDS011;31051;51.540;5.852;2023-07-29T23:10:59;7.4;;;2.8;;
45314;SDS011;31051;51.540;5.852;2023-07-29T23:23:58;5.6;;;2.8;;
45314;SDS011;31051;51.540;5.852;2023-07-29T23:36:58;5.9;;;2.7;;
45314;SDS011;31051;51.540;5.852;2023-07-29T23:49:57;7.2;;;2.9;;
